Time;durP1;ratioP1;P1;durP2;ratioP2;P2;SDS_P1;SDS_P2;PMS_P1;PMS_P2;Temp;Humidity;BMP_temperature;BMP_pressure;BME280_temperature;BME280_humidity;BME280_pressure;Samples;Min_cycle;Max_cycle;Signal;HPM_P1;HPM_P2
2022/03/14 00:00:11;;;;;;;2.65;2.42;;;;;;;;;;5043482;28;20488;-74
2022/03/14 00:02:38;;;;;;;3.17;2.50;;;;;;;;;;5026133;28;20493;-74
2022/03/14 00:05:05;;;;;;;2.80;2.30;;;;;;;;;;5027150;28;20091;-74
2022/03/14 00:07:34;;;;;;;2.80;2.50;;;;;;;;;;5048352;28;20068;-74
2022/03/14 00:10:01;;;;;;;2.95;2.40;;;;;;;;;;5043170;28;20041;-75
2022/03/14 00:12:28;;;;;;;2.85;2.53;;;;;;;;;;5040465;28;20059;-74
2022/03/14 00:14:55;;;;;;;2.58;2.20;;;;;;;;;;5040767;28;20035;-74
2022/03/14 00:17:23;;;;;;;3.28;2.35;;;;;;;;;;5037159;28;20168;-75
2022/03/14 00:19:50;;;;;;;3.60;2.30;;;;;;;;;;5042686;28;20480;-74
2022/03/14 00:22:19;;;;;;;2.95;2.40;;;;;;;;;;5045708;28;20036;-74
2022/03/14 00:24:46;;;;;;;2.97;2.35;;;;;;;;;;5044030;28;20500;-75
2022/03/14 00:27:12;;;;;;;3.05;2.40;;;;;;;;;;5039770;28;20521;-74
2022/03/14 00:29:38;;;;;;;2.90;2.60;;;;;;;;;;5042430;28;20068;-75
2022/03/14 00:32:05;;;;;;;3.42;2.50;;;;;;;;;;5040794;28;20032;-74
2022/03/14 00:34:31;;;;;;;3.67;2.50;;;;;;;;;;5037005;28;20037;-74
2022/03/14 00:36:57;;;;;;;3.60;2.88;;;;;;;;;;5045651;28;20026;-74
2022/03/14 00:39:23;;;;;;;4.47;2.72;;;;;;;;;;5038127;28;20098;-75
2022/03/14 00:41:49;;;;;;;3.00;2.38;;;;;;;;;;5046807;28;20025;-74
2022/03/14 00:44:16;;;;;;;3.88;2.65;;;;;;;;;;5040927;28;20889;-75
2022/03/14 00:46:43;;;;;;;3.20;2.42;;;;;;;;;;5039905;28;20018;-74
2022/03/14 00:49:09;;;;;;;3.03;2.50;;;;;;;;;;5040280;28;20041;-75
2022/03/14 00:51:35;;;;;;;2.90;2.40;;;;;;;;;;5037058;28;20035;-74
2022/03/14 00:54:02;;;;;;;2.88;2.58;;;;;;;;;;5042335;28;20033;-74
2022/03/14 00:56:28;;;;;;;3.10;2.53;;;;;;;;;;5042874;28;20033;-75
2022/03/14 00:58:55;;;;;;;4.45;2.42;;;;;;;;;;5038732;28;20127;-74
2022/03/14 01:01:21;;;;;;;3.17;2.45;;;;;;;;;;5045299;28;20052;-75
2022/03/14 01:03:47;;;;;;;3.03;2.45;;;;;;;;;;5039482;28;20029;-74
2022/03/14 01:06:14;;;;;;;3.13;2.38;;;;;;;;;;5041677;28;20040;-75
2022/03/14 01:08:40;;;;;;;4.70;2.42;;;;;;;;;;5042238;28;20017;-75
2022/03/14 01:11:06;;;;;;;4.53;2.35;;;;;;;;;;5043882;28;20499;-74
2022/03/14 01:13:32;;;;;;;3.35;2.35;;;;;;;;;;5041527;28;20530;-74
2022/03/14 01:15:59;;;;;;;2.80;2.25;;;;;;;;;;5040889;28;20491;-74
2022/03/14 01:18:25;;;;;;;3.45;2.63;;;;;;;;;;5043727;28;20059;-74
2022/03/14 01:20:52;;;;;;;3.72;2.58;;;;;;;;;;5042455;28;20012;-74
2022/03/14 01:23:18;;;;;;;3.38;2.70;;;;;;;;;;5040858;28;20481;-74
2022/03/14 01:25:45;;;;;;;4.50;2.70;;;;;;;;;;5038755;28;20512;-75
2022/03/14 01:28:12;;;;;;;3.13;2.67;;;;;;;;;;5038430;28;20031;-74
2022/03/14 01:30:40;;;;;;;2.85;2.42;;;;;;;;;;5037978;28;20036;-74
2022/03/14 01:33:06;;;;;;;2.70;2.40;;;;;;;;;;5038917;28;20219;-74
2022/03/14 01:35:33;;;;;;;2.63;2.35;;;;;;;;;;5035507;28;20033;-74
2022/03/14 01:37:59;;;;;;;4.35;2.47;;;;;;;;;;5038891;28;20033;-74
2022/03/14 01:40:25;;;;;;;3.25;2.63;;;;;;;;;;5041566;28;20033;-74
2022/03/14 01:42:51;;;;;;;2.90;2.30;;;;;;;;;;5037949;28;20362;-74
2022/03/14 01:45:18;;;;;;;3.08;2.42;;;;;;;;;;5043212;28;20641;-74
2022/03/14 01:47:45;;;;;;;3.50;2.60;;;;;;;;;;5039072;28;20025;-74
2022/03/14 01:50:12;;;;;;;2.88;2.47;;;;;;;;;;5038676;28;20083;-74
2022/03/14 01:52:38;;;;;;;3.30;2.67;;;;;;;;;;5037257;28;20021;-74
2022/03/14 01:55:04;;;;;;;4.30;2.45;;;;;;;;;;5037532;28;20386;-74
2022/03/14 01:57:31;;;;;;;5.10;2.45;;;;;;;;;;5039901;28;20061;-74
2022/03/14 01:59:57;;;;;;;5.43;2.42;;;;;;;;;;5041385;28;20116;-74
2022/03/14 02:02:23;;;;;;;2.90;2.60;;;;;;;;;;5041098;28;20025;-75
2022/03/14 02:04:50;;;;;;;5.20;2.85;;;;;;;;;;5040695;28;20051;-74
2022/03/14 02:07:16;;;;;;;4.57;2.95;;;;;;;;;;5040005;28;20391;-74
2022/03/14 02:09:42;;;;;;;3.22;2.53;;;;;;;;;;5035100;28;20501;-74
2022/03/14 02:12:10;;;;;;;7.45;5.72;;;;;;;;;;5037016;28;20053;-74
2022/03/14 02:14:39;;;;;;;5.68;4.30;;;;;;;;;;5041883;28;20428;-73
2022/03/14 02:17:05;;;;;;;4.47;3.90;;;;;;;;;;5039631;28;20032;-74
2022/03/14 02:19:32;;;;;;;5.03;2.97;;;;;;;;;;5044168;28;20073;-74
2022/03/14 02:21:58;;;;;;;7.38;3.70;;;;;;;;;;5042525;28;20040;-74
2022/03/14 02:24:28;;;;;;;4.40;3.65;;;;;;;;;;5040607;28;20029;-74
2022/03/14 02:26:55;;;;;;;3.92;3.33;;;;;;;;;;5038312;28;20047;-74
2022/03/14 02:29:21;;;;;;;4.22;3.22;;;;;;;;;;5039402;28;20041;-74
2022/03/14 02:31:47;;;;;;;6.20;3.75;;;;;;;;;;5039509;28;20028;-74
2022/03/14 02:34:13;;;;;;;5.25;4.05;;;;;;;;;;5038164;28;20151;-74
2022/03/14 02:36:40;;;;;;;4.75;3.90;;;;;;;;;;5044014;28;20032;-74
2022/03/14 02:39:09;;;;;;;6.95;3.92;;;;;;;;;;5034816;28;20032;-74
2022/03/14 02:41:36;;;;;;;5.13;4.00;;;;;;;;;;5037613;28;20510;-74
2022/03/14 02:44:06;;;;;;;4.70;3.38;;;;;;;;;;5041884;28;20434;-74
2022/03/14 02:46:40;;;;;;;3.55;3.15;;;;;;;;;;5038175;28;20009;-74
2022/03/14 02:49:07;;;;;;;4.85;3.72;;;;;;;;;;5041623;28;20467;-73
2022/03/14 02:51:38;;;;;;;7.30;4.20;;;;;;;;;;5040474;28;20029;-74
2022/03/14 02:54:08;;;;;;;5.07;4.05;;;;;;;;;;5041837;28;20025;-74
2022/03/14 02:56:35;;;;;;;8.13;5.35;;;;;;;;;;5043286;28;20469;-74
2022/03/14 02:59:02;;;;;;;7.38;5.40;;;;;;;;;;5035770;28;20029;-74
2022/03/14 03:01:28;;;;;;;7.95;4.95;;;;;;;;;;5040277;28;20060;-74
2022/03/14 03:03:54;;;;;;;7.57;5.05;;;;;;;;;;5036298;28;20029;-74
2022/03/14 03:06:22;;;;;;;6.55;4.50;;;;;;;;;;5040101;28;20029;-73
2022/03/14 03:08:49;;;;;;;6.00;4.88;;;;;;;;;;5032311;28;20377;-74
2022/03/14 03:11:15;;;;;;;6.45;4.72;;;;;;;;;;5038605;28;20013;-74
2022/03/14 03:13:41;;;;;;;6.70;5.13;;;;;;;;;;5039886;28;20103;-74
2022/03/14 03:16:08;;;;;;;7.38;4.88;;;;;;;;;;5038461;28;20107;-74
2022/03/14 03:18:35;;;;;;;4.85;3.70;;;;;;;;;;5047731;28;20432;-74
2022/03/14 03:21:01;;;;;;;5.25;3.92;;;;;;;;;;5047222;28;20102;-73
2022/03/14 03:23:28;;;;;;;5.95;4.13;;;;;;;;;;5042482;28;20025;-74
2022/03/14 03:25:54;;;;;;;5.05;4.03;;;;;;;;;;5035889;28;20024;-74
2022/03/14 03:28:20;;;;;;;6.72;4.80;;;;;;;;;;5043520;28;20041;-74
2022/03/14 03:30:46;;;;;;;6.53;4.60;;;;;;;;;;5044056;28;20082;-74
2022/03/14 03:33:13;;;;;;;8.90;5.03;;;;;;;;;;5044030;28;20051;-74
2022/03/14 03:35:39;;;;;;;6.15;4.32;;;;;;;;;;5045463;28;20912;-75
2022/03/14 03:38:05;;;;;;;7.88;5.03;;;;;;;;;;5047171;28;20025;-76
2022/03/14 03:40:31;;;;;;;5.30;4.20;;;;;;;;;;5042838;28;20052;-74
2022/03/14 03:42:57;;;;;;;7.45;4.65;;;;;;;;;;5031146;28;20030;-74
2022/03/14 03:45:24;;;;;;;4.90;3.92;;;;;;;;;;5040922;28;20037;-74
2022/03/14 03:47:50;;;;;;;5.65;4.70;;;;;;;;;;5037151;28;20017;-74
2022/03/14 03:50:17;;;;;;;5.50;4.40;;;;;;;;;;5041193;28;20523;-75
2022/03/14 03:52:43;;;;;;;7.15;4.00;;;;;;;;;;5045874;28;20722;-74
2022/03/14 03:55:09;;;;;;;6.40;3.97;;;;;;;;;;5046053;28;20028;-76
2022/03/14 03:57:36;;;;;;;6.30;4.45;;;;;;;;;;5044493;28;20150;-73
2022/03/14 04:00:09;;;;;;;5.57;4.43;;;;;;;;;;5043265;28;20033;-77
2022/03/14 04:02:38;;;;;;;5.80;4.40;;;;;;;;;;5036211;28;20838;-74
2022/03/14 04:05:05;;;;;;;6.25;3.85;;;;;;;;;;5022764;28;20541;-73
2022/03/14 04:07:32;;;;;;;5.15;3.70;;;;;;;;;;5020538;28;20037;-73
2022/03/14 04:09:59;;;;;;;9.65;5.28;;;;;;;;;;5022633;28;20080;-73
2022/03/14 04:12:26;;;;;;;6.28;4.70;;;;;;;;;;5022455;28;20053;-76
2022/03/14 04:14:53;;;;;;;5.88;4.40;;;;;;;;;;5023572;28;20057;-75
2022/03/14 04:17:19;;;;;;;7.00;4.28;;;;;;;;;;5022754;28;20029;-75
2022/03/14 04:19:46;;;;;;;5.78;4.05;;;;;;;;;;5021300;28;20025;-75
2022/03/14 04:22:14;;;;;;;5.95;4.55;;;;;;;;;;5022670;28;20037;-75
2022/03/14 04:24:40;;;;;;;8.55;5.15;;;;;;;;;;5022908;28;20040;-75
2022/03/14 04:27:08;;;;;;;5.45;4.50;;;;;;;;;;5021022;28;20029;-74
2022/03/14 04:29:34;;;;;;;5.55;4.68;;;;;;;;;;5021544;28;20520;-76
2022/03/14 04:32:01;;;;;;;6.47;4.22;;;;;;;;;;5022743;28;20021;-75
2022/03/14 04:34:27;;;;;;;6.57;5.05;;;;;;;;;;5022086;28;20159;-75
2022/03/14 04:36:54;;;;;;;6.82;5.13;;;;;;;;;;5020826;28;20471;-75
2022/03/14 04:39:20;;;;;;;5.63;4.53;;;;;;;;;;5022316;28;20029;-74
2022/03/14 04:41:46;;;;;;;7.70;4.95;;;;;;;;;;5022647;28;20040;-75
2022/03/14 04:44:13;;;;;;;6.63;5.15;;;;;;;;;;5020730;28;20025;-75
2022/03/14 04:46:39;;;;;;;7.47;5.60;;;;;;;;;;5021984;28;20076;-74
2022/03/14 04:49:06;;;;;;;8.77;5.57;;;;;;;;;;5022219;28;20388;-74
2022/03/14 04:51:32;;;;;;;5.95;5.20;;;;;;;;;;5021900;28;20087;-74
2022/03/14 04:53:59;;;;;;;7.72;6.20;;;;;;;;;;5020634;28;20032;-75
2022/03/14 04:56:25;;;;;;;8.93;5.85;;;;;;;;;;5022861;28;20122;-75
2022/03/14 04:58:52;;;;;;;8.07;5.40;;;;;;;;;;5020201;28;20052;-76
2022/03/14 05:01:23;;;;;;;7.32;5.50;;;;;;;;;;5021849;28;20577;-75
2022/03/14 05:03:50;;;;;;;5.57;4.85;;;;;;;;;;5022501;28;20030;-76
2022/03/14 05:06:16;;;;;;;7.97;5.80;;;;;;;;;;5020751;28;20100;-75
2022/03/14 05:08:43;;;;;;;6.10;5.43;;;;;;;;;;5021837;28;20034;-75
2022/03/14 05:11:11;;;;;;;5.78;4.63;;;;;;;;;;5021740;28;20037;-75
2022/03/14 05:13:37;;;;;;;6.03;4.43;;;;;;;;;;5021600;28;20084;-74
2022/03/14 05:16:03;;;;;;;5.88;4.35;;;;;;;;;;5021642;28;20045;-75
2022/03/14 05:18:29;;;;;;;5.72;4.18;;;;;;;;;;5021540;28;20033;-75
2022/03/14 05:20:56;;;;;;;6.20;4.50;;;;;;;;;;5020284;28;20052;-75
2022/03/14 05:23:24;;;;;;;5.95;4.03;;;;;;;;;;5021209;28;20099;-75
2022/03/14 05:25:50;;;;;;;6.28;5.05;;;;;;;;;;5021399;28;20470;-74
2022/03/14 05:28:16;;;;;;;7.22;4.70;;;;;;;;;;5021570;28;20035;-75
2022/03/14 05:30:43;;;;;;;7.18;5.00;;;;;;;;;;5020014;28;20037;-75
2022/03/14 05:33:09;;;;;;;7.57;5.40;;;;;;;;;;5021356;28;20049;-75
2022/03/14 05:35:35;;;;;;;8.50;5.35;;;;;;;;;;5021345;28;20508;-75
2022/03/14 05:38:01;;;;;;;5.63;4.80;;;;;;;;;;5021034;28;20026;-75
2022/03/14 05:40:28;;;;;;;6.10;4.95;;;;;;;;;;5020995;28;20037;-74
2022/03/14 05:42:54;;;;;;;7.55;5.18;;;;;;;;;;5019589;28;20036;-74
2022/03/14 05:45:21;;;;;;;7.38;5.55;;;;;;;;;;5021254;28;20747;-75
2022/03/14 05:47:48;;;;;;;8.35;5.07;;;;;;;;;;5021147;28;20111;-75
2022/03/14 05:50:14;;;;;;;5.18;4.45;;;;;;;;;;5020998;28;20037;-75
2022/03/14 05:52:41;;;;;;;8.48;4.10;;;;;;;;;;5021456;28;20017;-75
2022/03/14 05:55:08;;;;;;;6.75;4.70;;;;;;;;;;5019460;28;20797;-75
2022/03/14 05:57:35;;;;;;;6.32;4.45;;;;;;;;;;5021066;28;20024;-75
2022/03/14 06:00:01;;;;;;;8.07;4.28;;;;;;;;;;5018631;28;20056;-75
2022/03/14 06:02:28;;;;;;;6.28;5.00;;;;;;;;;;5021197;28;20115;-75
2022/03/14 06:04:54;;;;;;;5.78;4.90;;;;;;;;;;5019592;28;20033;-75
2022/03/14 06:07:21;;;;;;;6.35;5.60;;;;;;;;;;5020973;28;20053;-75
2022/03/14 06:09:51;;;;;;;8.52;6.68;;;;;;;;;;5020229;28;20039;-75
2022/03/14 06:12:26;;;;;;;7.03;5.53;;;;;;;;;;5020315;28;20081;-75
2022/03/14 06:14:56;;;;;;;11.00;6.40;;;;;;;;;;5020545;28;20039;-75
2022/03/14 06:17:23;;;;;;;7.05;5.68;;;;;;;;;;5019960;28;20075;-75
2022/03/14 06:19:49;;;;;;;6.90;5.75;;;;;;;;;;5019097;28;20095;-75
2022/03/14 06:22:19;;;;;;;7.10;5.72;;;;;;;;;;5028665;28;20029;-75
2022/03/14 06:24:47;;;;;;;7.72;6.10;;;;;;;;;;5042238;28;20025;-75
2022/03/14 06:27:17;;;;;;;8.95;5.82;;;;;;;;;;5042795;28;20032;-75
2022/03/14 06:29:44;;;;;;;7.35;6.00;;;;;;;;;;5040955;28;20025;-75
2022/03/14 06:32:10;;;;;;;6.78;4.85;;;;;;;;;;5042491;28;20510;-75
2022/03/14 06:34:37;;;;;;;5.55;4.82;;;;;;;;;;5042460;28;20384;-75
2022/03/14 06:37:03;;;;;;;6.82;5.28;;;;;;;;;;5040797;28;20063;-75
2022/03/14 06:39:29;;;;;;;5.90;4.53;;;;;;;;;;5040992;28;20021;-75
2022/03/14 06:41:57;;;;;;;7.18;4.47;;;;;;;;;;5042376;28;20036;-75
2022/03/14 06:44:29;;;;;;;5.40;4.40;;;;;;;;;;5042137;28;20078;-76
2022/03/14 06:46:55;;;;;;;6.93;4.20;;;;;;;;;;5042261;28;20086;-75
2022/03/14 06:49:21;;;;;;;5.43;4.18;;;;;;;;;;5041730;28;20113;-75
2022/03/14 06:51:49;;;;;;;5.60;3.55;;;;;;;;;;5041083;28;20087;-75
2022/03/14 06:54:15;;;;;;;4.85;3.85;;;;;;;;;;5040600;28;20472;-76
2022/03/14 06:56:44;;;;;;;6.45;3.97;;;;;;;;;;5041426;28;20021;-75
2022/03/14 06:59:11;;;;;;;4.40;3.55;;;;;;;;;;5042177;28;20061;-76
2022/03/14 07:01:37;;;;;;;4.55;3.67;;;;;;;;;;5041828;28;20021;-75
2022/03/14 07:04:04;;;;;;;4.78;3.85;;;;;;;;;;5041653;28;20535;-74
2022/03/14 07:06:30;;;;;;;3.83;3.42;;;;;;;;;;5040733;28;20052;-74
2022/03/14 07:08:56;;;;;;;6.75;3.45;;;;;;;;;;5041711;28;20029;-75
2022/03/14 07:11:22;;;;;;;3.60;2.70;;;;;;;;;;5041658;28;20053;-75
2022/03/14 07:13:48;;;;;;;3.92;3.15;;;;;;;;;;5040482;28;20040;-75
2022/03/14 07:16:15;;;;;;;3.97;2.72;;;;;;;;;;5040939;28;20025;-76
2022/03/14 07:18:41;;;;;;;5.15;3.08;;;;;;;;;;5042243;28;20024;-75
2022/03/14 07:21:07;;;;;;;4.22;3.20;;;;;;;;;;5040804;28;20025;-75
2022/03/14 07:23:34;;;;;;;3.38;2.45;;;;;;;;;;5041934;28;20100;-74
2022/03/14 07:26:00;;;;;;;6.70;3.17;;;;;;;;;;5042105;28;20642;-75
2022/03/14 07:28:26;;;;;;;4.15;3.20;;;;;;;;;;5041783;28;20695;-75
2022/03/14 07:30:52;;;;;;;6.00;3.30;;;;;;;;;;5041895;28;20123;-75
2022/03/14 07:33:18;;;;;;;3.65;2.63;;;;;;;;;;5040390;28;20090;-75
2022/03/14 07:35:45;;;;;;;3.85;2.97;;;;;;;;;;5041867;28;20048;-75
2022/03/14 07:38:11;;;;;;;4.30;3.08;;;;;;;;;;5041380;28;20029;-75
2022/03/14 07:40:37;;;;;;;5.97;3.10;;;;;;;;;;5041995;28;20083;-75
2022/03/14 07:43:04;;;;;;;4.25;3.00;;;;;;;;;;5041815;28;20409;-75
2022/03/14 07:45:30;;;;;;;4.40;2.88;;;;;;;;;;5041620;28;20025;-75
2022/03/14 07:47:57;;;;;;;3.00;2.63;;;;;;;;;;5039151;28;20021;-75
2022/03/14 07:50:24;;;;;;;3.53;2.90;;;;;;;;;;5024993;28;20033;-76
2022/03/14 07:52:50;;;;;;;4.47;3.60;;;;;;;;;;5031878;28;20036;-78
2022/03/14 07:55:16;;;;;;;5.25;3.50;;;;;;;;;;5026801;28;20527;-78
2022/03/14 07:57:43;;;;;;;4.15;3.60;;;;;;;;;;5035611;28;20079;-77
2022/03/14 08:00:11;;;;;;;4.88;3.40;;;;;;;;;;5036426;28;20033;-75
2022/03/14 08:02:37;;;;;;;5.38;3.75;;;;;;;;;;5037860;28;20039;-77
2022/03/14 08:05:04;;;;;;;4.70;3.60;;;;;;;;;;5040580;28;20049;-77
2022/03/14 08:07:31;;;;;;;6.15;4.80;;;;;;;;;;5042614;28;20110;-77
2022/03/14 08:09:57;;;;;;;5.60;3.97;;;;;;;;;;5041489;28;20539;-77
2022/03/14 08:12:23;;;;;;;5.60;3.70;;;;;;;;;;5035278;28;20037;-76
2022/03/14 08:14:50;;;;;;;4.43;3.30;;;;;;;;;;5041902;28;20032;-76
2022/03/14 08:17:18;;;;;;;4.90;3.67;;;;;;;;;;5033236;28;20410;-76
2022/03/14 08:19:44;;;;;;;4.35;3.78;;;;;;;;;;5043329;28;20025;-75
2022/03/14 08:22:11;;;;;;;7.22;4.55;;;;;;;;;;5040747;28;20528;-76
2022/03/14 08:24:37;;;;;;;6.22;4.35;;;;;;;;;;5039749;28;20092;-77
2022/03/14 08:27:04;;;;;;;5.55;4.50;;;;;;;;;;5042721;28;20036;-78
2022/03/14 08:29:30;;;;;;;13.18;9.00;;;;;;;;;;5043735;28;20041;-77
2022/03/14 08:31:58;;;;;;;7.53;5.50;;;;;;;;;;5044063;28;20028;-78
2022/03/14 08:34:25;;;;;;;8.90;7.18;;;;;;;;;;5042947;28;20029;-76
2022/03/14 08:36:51;;;;;;;12.02;10.02;;;;;;;;;;5044783;28;20031;-74
2022/03/14 08:39:17;;;;;;;10.75;8.55;;;;;;;;;;5041915;28;20105;-74
2022/03/14 08:41:44;;;;;;;6.28;4.88;;;;;;;;;;5042436;28;20024;-76
2022/03/14 08:44:10;;;;;;;5.53;4.35;;;;;;;;;;5043609;28;20025;-75
2022/03/14 08:46:38;;;;;;;34.47;19.58;;;;;;;;;;5043540;28;20020;-75
2022/03/14 08:49:04;;;;;;;44.75;25.67;;;;;;;;;;5043412;28;20052;-76
2022/03/14 08:51:30;;;;;;;41.15;23.60;;;;;;;;;;5041636;28;20460;-75
2022/03/14 08:53:57;;;;;;;14.32;8.57;;;;;;;;;;5041965;28;20125;-78
2022/03/14 08:56:23;;;;;;;7.03;4.70;;;;;;;;;;5042971;28;20563;-77
2022/03/14 08:58:49;;;;;;;13.60;8.50;;;;;;;;;;5043357;28;20029;-75
2022/03/14 09:01:15;;;;;;;7.93;6.05;;;;;;;;;;5040427;28;20059;-77
2022/03/14 09:03:42;;;;;;;6.55;5.03;;;;;;;;;;5042439;28;20033;-75
2022/03/14 09:06:09;;;;;;;25.98;16.98;;;;;;;;;;5043713;28;20113;-74
2022/03/14 09:08:35;;;;;;;62.65;40.40;;;;;;;;;;5042374;28;20071;-75
2022/03/14 09:11:02;;;;;;;69.40;42.85;;;;;;;;;;5042996;28;20059;-75
2022/03/14 09:13:29;;;;;;;20.92;16.15;;;;;;;;;;5042058;28;20156;-76
2022/03/14 09:15:55;;;;;;;13.13;10.05;;;;;;;;;;5043109;28;20087;-76
2022/03/14 09:18:22;;;;;;;19.73;12.15;;;;;;;;;;5043490;28;20021;-77
2022/03/14 09:20:49;;;;;;;17.67;11.73;;;;;;;;;;5043560;28;20025;-76
2022/03/14 09:23:20;;;;;;;10.77;7.10;;;;;;;;;;5042880;28;20027;-76
2022/03/14 09:25:46;;;;;;;7.00;5.50;;;;;;;;;;5037922;28;20512;-75
2022/03/14 09:28:13;;;;;;;7.15;5.47;;;;;;;;;;5042001;28;20024;-78
2022/03/14 09:30:39;;;;;;;12.18;7.55;;;;;;;;;;5039154;28;20048;-75
2022/03/14 09:33:06;;;;;;;11.68;7.95;;;;;;;;;;5044252;28;20029;-77
2022/03/14 09:35:34;;;;;;;7.95;5.10;;;;;;;;;;5054197;28;20025;-77
2022/03/14 09:38:00;;;;;;;5.25;4.25;;;;;;;;;;5021422;28;20028;-77
2022/03/14 09:40:30;;;;;;;4.55;3.50;;;;;;;;;;5029455;28;20032;-77
2022/03/14 09:42:59;;;;;;;6.25;3.92;;;;;;;;;;5043004;28;20025;-74
2022/03/14 09:45:25;;;;;;;12.38;7.95;;;;;;;;;;5043383;28;20117;-74
2022/03/14 09:47:53;;;;;;;11.13;8.57;;;;;;;;;;5037048;28;20010;-77
2022/03/14 09:50:39;;;;;;;11.90;9.60;;;;;;;;;;5021108;28;20043;-74
2022/03/14 09:53:10;;;;;;;14.88;9.70;;;;;;;;;;5022996;28;20025;-74
2022/03/14 09:55:44;;;;;;;8.73;5.90;;;;;;;;;;5023025;28;20037;-75
2022/03/14 09:58:20;;;;;;;7.57;4.80;;;;;;;;;;5041420;28;20024;-75
2022/03/14 10:00:47;;;;;;;5.07;4.15;;;;;;;;;;5040458;28;20111;-74
2022/03/14 10:03:14;;;;;;;7.82;4.55;;;;;;;;;;5040734;28;20048;-74
2022/03/14 10:05:41;;;;;;;6.78;5.25;;;;;;;;;;5042601;28;20626;-74
2022/03/14 10:08:07;;;;;;;8.30;4.85;;;;;;;;;;5040232;28;20424;-74
2022/03/14 10:10:37;;;;;;;7.05;3.83;;;;;;;;;;5041213;28;20682;-77
2022/03/14 10:13:03;;;;;;;15.77;5.85;;;;;;;;;;5039709;28;20045;-78
2022/03/14 10:15:31;;;;;;;8.02;4.55;;;;;;;;;;5041606;28;20028;-76
2022/03/14 10:17:58;;;;;;;7.85;4.65;;;;;;;;;;5040757;28;20059;-78
2022/03/14 10:20:25;;;;;;;12.50;8.23;;;;;;;;;;5042066;28;20032;-77
2022/03/14 10:22:52;;;;;;;13.10;8.98;;;;;;;;;;5040319;28;20025;-75
2022/03/14 10:25:19;;;;;;;9.00;7.30;;;;;;;;;;5037267;28;20029;-78
2022/03/14 10:27:57;;;;;;;10.68;6.45;;;;;;;;;;5025732;28;20025;-78
2022/03/14 10:30:30;;;;;;;8.75;5.53;;;;;;;;;;5034895;28;20044;-79
2022/03/14 10:33:05;;;;;;;19.13;6.07;;;;;;;;;;5041452;28;20017;-79
2022/03/14 10:35:35;;;;;;;7.53;4.95;;;;;;;;;;5042968;28;20028;-79
2022/03/14 10:38:04;;;;;;;7.38;4.60;;;;;;;;;;5039097;28;20496;-78
2022/03/14 10:40:31;;;;;;;5.00;3.88;;;;;;;;;;5038000;28;20111;-78
2022/03/14 10:42:57;;;;;;;5.85;4.65;;;;;;;;;;5040159;28;20025;-76
2022/03/14 10:45:24;;;;;;;5.05;4.05;;;;;;;;;;5041953;28;20025;-77
2022/03/14 10:47:56;;;;;;;5.53;3.83;;;;;;;;;;5039916;28;20951;-76
2022/03/14 10:50:30;;;;;;;6.43;4.60;;;;;;;;;;5041595;28;20033;-77
2022/03/14 10:53:05;;;;;;;5.63;4.75;;;;;;;;;;5041560;28;20843;-77
2022/03/14 10:55:42;;;;;;;6.95;4.18;;;;;;;;;;5041931;28;20036;-78
2022/03/14 10:58:09;;;;;;;7.50;5.20;;;;;;;;;;5040278;28;20024;-78
2022/03/14 11:00:45;;;;;;;11.15;5.50;;;;;;;;;;5041935;28;20490;-76
2022/03/14 11:03:11;;;;;;;7.78;5.50;;;;;;;;;;5039959;28;20114;-77
2022/03/14 11:05:44;;;;;;;7.35;5.10;;;;;;;;;;5041288;28;20039;-76
2022/03/14 11:08:36;;;;;;;6.20;4.68;;;;;;;;;;5041364;28;20036;-75
2022/03/14 11:11:02;;;;;;;;;;;;;;;;;;5038482;28;20486;-76
2022/03/14 11:13:29;;;;;;;6.60;4.40;;;;;;;;;;5039690;28;20049;-77
2022/03/14 11:15:56;;;;;;;7.10;4.68;;;;;;;;;;5040928;28;20041;-77
2022/03/14 11:18:23;;;;;;;7.93;4.82;;;;;;;;;;5041558;28;20017;-78
2022/03/14 11:20:49;;;;;;;6.70;4.50;;;;;;;;;;5039670;28;20017;-78
2022/03/14 11:23:15;;;;;;;4.40;3.65;;;;;;;;;;5041186;28;20621;-78
2022/03/14 11:25:45;;;;;;;6.10;4.00;;;;;;;;;;5041195;28;20052;-78
2022/03/14 11:28:15;;;;;;;4.75;3.20;;;;;;;;;;5041282;28;20025;-77
2022/03/14 11:30:43;;;;;;;5.63;3.70;;;;;;;;;;5041378;28;20057;-77
2022/03/14 11:33:14;;;;;;;4.38;3.38;;;;;;;;;;5039812;28;20056;-77
2022/03/14 11:35:40;;;;;;;4.85;2.85;;;;;;;;;;5041917;28;20505;-78
2022/03/14 11:38:08;;;;;;;4.32;2.50;;;;;;;;;;5043499;28;20078;-76
2022/03/14 11:40:34;;;;;;;4.55;2.58;;;;;;;;;;5044995;28;20060;-77
2022/03/14 11:43:01;;;;;;;5.97;2.83;;;;;;;;;;5045089;28;20071;-78
2022/03/14 11:45:28;;;;;;;3.55;2.60;;;;;;;;;;5045137;28;20025;-78
2022/03/14 11:47:54;;;;;;;4.32;3.13;;;;;;;;;;5043419;28;20025;-78
2022/03/14 11:50:22;;;;;;;4.50;3.35;;;;;;;;;;5044642;28;20033;-77
2022/03/14 11:52:50;;;;;;;3.78;2.70;;;;;;;;;;5044657;28;20052;-76
2022/03/14 11:55:22;;;;;;;3.55;2.70;;;;;;;;;;5044459;28;20071;-78
2022/03/14 11:57:48;;;;;;;4.28;3.25;;;;;;;;;;5044452;28;20021;-77
2022/03/14 12:00:32;;;;;;;4.68;3.17;;;;;;;;;;5044640;28;20028;-77
2022/03/14 12:03:08;;;;;;;4.45;2.97;;;;;;;;;;5043391;28;20029;-75
2022/03/14 12:05:35;;;;;;;4.22;2.78;;;;;;;;;;5044919;28;20102;-79
2022/03/14 12:08:07;;;;;;;3.05;2.17;;;;;;;;;;5043510;28;20025;-78
2022/03/14 12:10:34;;;;;;;16.42;4.25;;;;;;;;;;5044563;28;20043;-74
2022/03/14 12:13:02;;;;;;;5.80;3.15;;;;;;;;;;5042937;28;20920;-78
2022/03/14 12:15:37;;;;;;;2.78;2.17;;;;;;;;;;5044163;28;20033;-78
2022/03/14 12:18:24;;;;;;;3.75;2.30;;;;;;;;;;5043951;28;20033;-78
2022/03/14 12:20:50;;;;;;;3.15;1.85;;;;;;;;;;5037563;28;20033;-78
2022/03/14 12:23:22;;;;;;;2.67;1.90;;;;;;;;;;5043757;28;20021;-78
2022/03/14 12:25:48;;;;;;;2.72;2.20;;;;;;;;;;5043368;28;20032;-80
2022/03/14 12:28:31;;;;;;;3.33;2.30;;;;;;;;;;5044201;28;20017;-79
2022/03/14 12:31:01;;;;;;;3.63;2.30;;;;;;;;;;5043304;28;20041;-81
2022/03/14 12:33:35;;;;;;;3.95;2.30;;;;;;;;;;5042352;28;20063;-75
2022/03/14 12:36:21;;;;;;;3.30;2.47;;;;;;;;;;5043992;28;20108;-75
2022/03/14 12:39:06;;;;;;;3.50;2.78;;;;;;;;;;5042058;28;20504;-77
2022/03/14 12:41:33;;;;;;;3.47;2.80;;;;;;;;;;5043463;28;20029;-77
2022/03/14 12:43:59;;;;;;;3.60;2.80;;;;;;;;;;5043563;28;20033;-77
2022/03/14 12:46:27;;;;;;;4.00;2.40;;;;;;;;;;5042607;28;20040;-77
2022/03/14 12:48:54;;;;;;;3.67;2.97;;;;;;;;;;5042937;28;20022;-76
2022/03/14 12:51:27;;;;;;;3.20;2.63;;;;;;;;;;5043144;28;20551;-77
2022/03/14 12:54:00;;;;;;;3.38;2.78;;;;;;;;;;5041899;28;20029;-78
2022/03/14 12:56:28;;;;;;;3.50;2.30;;;;;;;;;;5042114;28;20056;-78
2022/03/14 12:58:55;;;;;;;3.05;2.42;;;;;;;;;;5043915;28;20033;-78
2022/03/14 13:01:21;;;;;;;4.07;2.28;;;;;;;;;;5041914;28;20549;-79
2022/03/14 13:03:48;;;;;;;3.92;2.60;;;;;;;;;;5042998;28;20025;-78
2022/03/14 13:06:14;;;;;;;3.58;2.45;;;;;;;;;;5042992;28;20029;-78
2022/03/14 13:08:47;;;;;;;3.40;2.33;;;;;;;;;;5043267;28;20052;-79
2022/03/14 13:11:14;;;;;;;4.20;2.40;;;;;;;;;;5042252;28;20033;-78
2022/03/14 13:13:40;;;;;;;3.88;2.45;;;;;;;;;;5042941;28;20406;-76
2022/03/14 13:16:10;;;;;;;3.53;2.50;;;;;;;;;;5042749;28;20082;-79
2022/03/14 13:18:41;;;;;;;12.63;3.97;;;;;;;;;;5041671;28;20021;-78
2022/03/14 13:21:11;;;;;;;2.47;2.20;;;;;;;;;;5041703;28;20040;-78
2022/03/14 13:23:37;;;;;;;3.70;2.58;;;;;;;;;;5042231;28;20024;-78
2022/03/14 13:26:03;;;;;;;3.25;2.20;;;;;;;;;;5041912;28;20043;-77
2022/03/14 13:28:31;;;;;;;3.45;2.80;;;;;;;;;;5042178;28;20021;-79
2022/03/14 13:30:59;;;;;;;4.68;3.10;;;;;;;;;;5036783;28;20029;-76
2022/03/14 13:33:27;;;;;;;3.90;2.72;;;;;;;;;;5019542;28;20386;-79
2022/03/14 13:35:54;;;;;;;2.53;2.30;;;;;;;;;;5019473;28;20689;-77
2022/03/14 13:38:29;;;;;;;2.83;2.22;;;;;;;;;;5020661;28;20026;-77
2022/03/14 13:40:56;;;;;;;3.08;2.40;;;;;;;;;;5019733;28;20053;-75
2022/03/14 13:43:22;;;;;;;3.20;2.17;;;;;;;;;;5020671;28;20076;-80
2022/03/14 13:45:49;;;;;;;3.67;2.40;;;;;;;;;;5020224;28;20211;-80
2022/03/14 13:48:24;;;;;;;3.88;2.05;;;;;;;;;;5020829;28;20025;-77
2022/03/14 13:50:50;;;;;;;3.35;2.20;;;;;;;;;;5026645;28;20033;-79
2022/03/14 13:53:23;;;;;;;4.18;2.30;;;;;;;;;;5039436;28;20508;-79
2022/03/14 13:55:55;;;;;;;3.15;2.30;;;;;;;;;;5020982;28;20032;-78
2022/03/14 13:58:28;;;;;;;3.50;2.33;;;;;;;;;;5038053;28;20086;-80
2022/03/14 14:00:55;;;;;;;3.33;2.40;;;;;;;;;;5041193;28;20039;-77
2022/03/14 14:03:22;;;;;;;3.97;2.30;;;;;;;;;;5039162;28;20059;-78
2022/03/14 14:05:50;;;;;;;3.00;2.10;;;;;;;;;;5035695;28;20032;-76
2022/03/14 14:08:30;;;;;;;3.58;2.03;;;;;;;;;;5037289;28;20083;-76
2022/03/14 14:10:57;;;;;;;3.42;2.33;;;;;;;;;;5028761;28;20400;-75
2022/03/14 14:13:23;;;;;;;2.92;2.50;;;;;;;;;;5029080;28;20044;-81
2022/03/14 14:15:50;;;;;;;3.63;2.80;;;;;;;;;;5035227;28;20040;-76
2022/03/14 14:18:20;;;;;;;2.97;2.40;;;;;;;;;;5040041;28;20100;-75
2022/03/14 14:20:47;;;;;;;3.08;2.55;;;;;;;;;;5040596;28;20126;-76
2022/03/14 14:23:20;;;;;;;7.80;4.63;;;;;;;;;;5041923;28;20483;-77
2022/03/14 14:25:47;;;;;;;6.35;4.78;;;;;;;;;;5041586;28;20392;-76
2022/03/14 14:28:13;;;;;;;8.05;5.68;;;;;;;;;;5040489;28;20120;-75
2022/03/14 14:30:47;;;;;;;5.72;3.38;;;;;;;;;;5041785;28;20477;-75
2022/03/14 14:33:17;;;;;;;4.40;2.83;;;;;;;;;;5041735;28;20029;-75
2022/03/14 14:35:48;;;;;;;3.28;2.13;;;;;;;;;;5039838;28;20051;-74
2022/03/14 14:38:16;;;;;;;3.35;2.78;;;;;;;;;;5041764;28;20485;-76
2022/03/14 14:40:45;;;;;;;3.33;2.65;;;;;;;;;;5040609;28;20036;-79
2022/03/14 14:43:11;;;;;;;4.35;2.97;;;;;;;;;;5041664;28;20127;-77